createdAt,value
2022-10-29T00:00:55.589Z,100807.25
2022-10-29T00:03:23.076Z,100815.94
2022-10-29T00:06:01.294Z,100804.84
2022-10-29T00:08:29.178Z,100807.38
2022-10-29T00:10:56.592Z,100810.25
2022-10-29T00:13:23.362Z,100817.28
2022-10-29T00:15:49.902Z,100813.56
2022-10-29T00:18:16.445Z,100818.78
2022-10-29T00:20:43.022Z,100814.72
2022-10-29T00:23:09.769Z,100815.72
2022-10-29T00:25:36.369Z,100815.72
2022-10-29T00:28:02.944Z,100818.06
2022-10-29T00:30:29.508Z,100814.81
2022-10-29T00:32:56.329Z,100823.84
2022-10-29T00:35:23.188Z,100822.34
2022-10-29T00:37:49.693Z,100825.44
2022-10-29T00:40:16.376Z,100820.28
2022-10-29T00:42:42.925Z,100819.19
2022-10-29T00:45:19.380Z,100841.69
2022-10-29T00:47:50.908Z,100831.72
2022-10-29T00:50:20.643Z,100835.75
2022-10-29T00:52:49.446Z,100834.22
2022-10-29T00:55:17.319Z,100832.72
2022-10-29T00:57:50.122Z,100852.28
2022-10-29T01:00:18.794Z,100838.03
2022-10-29T01:02:45.925Z,100835.16
2022-10-29T01:05:17.205Z,100832.19
2022-10-29T01:07:44.095Z,100823.34
2022-10-29T01:10:12.405Z,100822.25
2022-10-29T01:12:52.783Z,100830.03
2022-10-29T01:15:38.057Z,100833.38
2022-10-29T01:18:16.695Z,100831.69
2022-10-29T01:21:32.426Z,100837.91
2022-10-29T01:24:23.507Z,100845.53
2022-10-29T01:27:24.467Z,100835.41
2022-10-29T01:30:09.349Z,100835.03
2022-10-29T01:32:51.250Z,100838.50
2022-10-29T01:35:38.480Z,100840.50
2022-10-29T01:38:18.040Z,100839.81
2022-10-29T01:41:09.831Z,100849.47
2022-10-29T01:44:26.947Z,100830.38
2022-10-29T01:47:00.374Z,100844.56
2022-10-29T01:49:34.771Z,100847.16
2022-10-29T01:52:04.076Z,100852.78
2022-10-29T01:54:30.625Z,100840.88
2022-10-29T01:56:58.643Z,100845.38
2022-10-29T01:59:36.386Z,100852.63
2022-10-29T02:02:30.658Z,100852.19
2022-10-29T02:05:12.562Z,100861.91
2022-10-29T02:07:58.294Z,100874.94
2022-10-29T02:10:33.961Z,100889.56
2022-10-29T02:13:00.867Z,100868.38
2022-10-29T02:15:35.561Z,100862.63
2022-10-29T02:18:05.009Z,100877.09
2022-10-29T02:20:31.639Z,100884.81
2022-10-29T02:22:58.558Z,100880.34
2022-10-29T02:25:25.283Z,100877.19
2022-10-29T02:27:52.135Z,100877.78
2022-10-29T02:30:19.276Z,100874.44
2022-10-29T02:32:45.807Z,100877.66
2022-10-29T02:35:12.417Z,100886.34
2022-10-29T02:37:38.984Z,100877.31
2022-10-29T02:40:06.070Z,100884.56
2022-10-29T02:42:32.604Z,100879.44
2022-10-29T02:44:59.162Z,100879.28
2022-10-29T02:47:25.750Z,100879.06
2022-10-29T02:49:52.279Z,100872.09
2022-10-29T02:52:19.076Z,100861.34
2022-10-29T02:54:46.020Z,100866.63
2022-10-29T02:57:12.533Z,100867.81
2022-10-29T02:59:39.095Z,100870.88
2022-10-29T03:02:05.870Z,100878.72
2022-10-29T03:04:32.987Z,100883.00
2022-10-29T03:07:00.201Z,100895.38
2022-10-29T03:09:26.739Z,100898.22
2022-10-29T03:11:53.346Z,100915.25
2022-10-29T03:14:19.919Z,100911.91
2022-10-29T03:16:46.452Z,100902.09
2022-10-29T03:19:13.078Z,100895.19
2022-10-29T03:21:39.596Z,100887.31
2022-10-29T03:24:06.473Z,100904.59
2022-10-29T03:26:33.022Z,100914.97
2022-10-29T03:28:59.667Z,100921.63
2022-10-29T03:31:26.214Z,100928.41
2022-10-29T03:33:52.778Z,100937.28
2022-10-29T03:36:19.402Z,100937.09
2022-10-29T03:38:45.990Z,100945.25
2022-10-29T03:41:12.694Z,100959.78
2022-10-29T03:43:39.496Z,100960.75
2022-10-29T03:46:06.299Z,100946.06
2022-10-29T03:48:33.206Z,100948.16
2022-10-29T03:51:01.820Z,100936.16
2022-10-29T03:53:29.441Z,100943.69
2022-10-29T03:55:57.208Z,100958.41
2022-10-29T03:58:25.342Z,100971.94
2022-10-29T04:01:00.525Z,100952.91
2022-10-29T04:03:28.823Z,100951.22
2022-10-29T04:05:56.124Z,100956.72
2022-10-29T04:08:22.766Z,100962.25
2022-10-29T04:10:50.906Z,100957.97
2022-10-29T04:13:18.283Z,100964.38
2022-10-29T04:15:45.529Z,100963.47
2022-10-29T04:18:12.697Z,100968.63
2022-10-29T04:20:57.002Z,100966.56
2022-10-29T04:29:00.509Z,100965.66
2022-10-29T04:31:27.064Z,100968.69
2022-10-29T04:33:53.954Z,100976.97
2022-10-29T04:36:20.557Z,100979.91
2022-10-29T04:38:47.203Z,100970.50
2022-10-29T04:41:13.721Z,100969.34
2022-10-29T04:43:40.308Z,100984.66
2022-10-29T04:46:06.926Z,100978.03
2022-10-29T04:48:33.577Z,100978.69
2022-10-29T04:51:00.190Z,100975.91
2022-10-29T04:53:26.808Z,100982.34
2022-10-29T04:55:59.812Z,100984.84
2022-10-29T04:58:26.423Z,100987.34
2022-10-29T05:00:53.083Z,100989.69
2022-10-29T05:03:19.744Z,100994.31
2022-10-29T05:05:46.256Z,101006.66
2022-10-29T05:08:13.190Z,100997.94
2022-10-29T05:10:40.156Z,101016.53
2022-10-29T05:13:10.479Z,101004.19
2022-10-29T05:15:37.733Z,101006.66
2022-10-29T05:18:05.301Z,101028.78
2022-10-29T05:20:31.873Z,101014.56
2022-10-29T05:23:06.395Z,101026.75
2022-10-29T05:25:35.589Z,101014.16
2022-10-29T05:28:05.097Z,101032.88
2022-10-29T05:30:33.014Z,101033.09
2022-10-29T05:32:59.740Z,101032.50
2022-10-29T05:35:27.104Z,101026.25
2022-10-29T05:37:55.168Z,101029.16
2022-10-29T05:40:22.940Z,101022.22
2022-10-29T05:42:50.043Z,101019.28
2022-10-29T05:45:16.867Z,101020.69
2022-10-29T05:47:43.771Z,101030.06
2022-10-29T05:50:11.565Z,101017.41
2022-10-29T05:52:38.659Z,101012.88
2022-10-29T05:55:06.459Z,101019.84
2022-10-29T05:57:33.128Z,101019.63
2022-10-29T05:59:59.837Z,101026.94
2022-10-29T06:02:26.511Z,101030.75
2022-10-29T06:04:53.090Z,101028.56
2022-10-29T06:07:19.667Z,101046.91
2022-10-29T06:09:46.248Z,101043.38
2022-10-29T06:12:12.805Z,101039.16
2022-10-29T06:14:39.385Z,101037.69
2022-10-29T06:17:05.913Z,101032.91
2022-10-29T06:19:32.728Z,101045.09
2022-10-29T06:22:00.460Z,101040.69
2022-10-29T06:24:27.570Z,101040.78
2022-10-29T06:26:54.668Z,101045.69
2022-10-29T06:29:21.297Z,101054.75
2022-10-29T06:31:47.876Z,101064.28
2022-10-29T06:34:14.908Z,101060.56
2022-10-29T06:36:41.607Z,101061.72
2022-10-29T06:39:08.317Z,101062.09
2022-10-29T06:41:34.861Z,101069.09
2022-10-29T06:44:01.555Z,101075.88
2022-10-29T06:46:28.143Z,101084.44
2022-10-29T06:48:54.715Z,101089.09
2022-10-29T06:53:54.814Z,101088.72
2022-10-29T06:56:21.907Z,101089.06
2022-10-29T06:58:48.491Z,101097.94
2022-10-29T07:01:15.107Z,101095.09
2022-10-29T07:03:41.683Z,101100.06
2022-10-29T07:06:08.190Z,101107.53
2022-10-29T07:08:34.844Z,101097.56
2022-10-29T07:11:02.828Z,101105.19
2022-10-29T07:13:29.413Z,101103.28
2022-10-29T07:15:56.011Z,101115.91
2022-10-29T07:18:22.501Z,101111.84
2022-10-29T07:20:49.070Z,101127.84
2022-10-29T07:23:15.816Z,101126.16
2022-10-29T07:25:42.541Z,101128.41
2022-10-29T07:28:16.490Z,101130.19
2022-10-29T07:30:44.088Z,101135.13
2022-10-29T07:33:11.120Z,101138.56
2022-10-29T07:35:37.824Z,101151.53
2022-10-29T07:38:10.477Z,101152.25
2022-10-29T07:40:39.919Z,101153.75
2022-10-29T07:43:06.539Z,101156.28
2022-10-29T07:45:33.315Z,101149.94
2022-10-29T07:48:02.876Z,101150.16
2022-10-29T07:50:31.579Z,101141.34
2022-10-29T07:53:02.258Z,101150.72
2022-10-29T07:58:03.872Z,101131.34
2022-10-29T08:00:32.121Z,101133.81
2022-10-29T08:02:59.029Z,101138.91
2022-10-29T08:05:27.023Z,101134.03
2022-10-29T08:07:55.346Z,101143.66
2022-10-29T08:10:23.247Z,101140.50
2022-10-29T08:12:55.303Z,101155.69
2022-10-29T08:15:22.943Z,101152.78
2022-10-29T08:17:50.441Z,101157.91
2022-10-29T08:20:17.807Z,101165.56
2022-10-29T08:22:44.417Z,101165.84
2022-10-29T08:25:11.958Z,101170.00
2022-10-29T08:27:39.082Z,101185.00
2022-10-29T08:30:07.812Z,101173.13
2022-10-29T08:32:35.506Z,101178.91
2022-10-29T08:35:02.605Z,101182.44
2022-10-29T08:37:29.183Z,101177.47
2022-10-29T08:39:55.766Z,101190.66
2022-10-29T08:42:52.868Z,101172.47
2022-10-29T08:45:34.983Z,101169.38
2022-10-29T08:48:20.144Z,101166.31
2022-10-29T08:51:14.105Z,101172.56
2022-10-29T08:53:54.133Z,101156.50
2022-10-29T08:56:43.647Z,101172.44
2022-10-29T08:59:20.376Z,101170.97
2022-10-29T09:01:47.723Z,101175.34
2022-10-29T09:04:22.722Z,101177.44
2022-10-29T09:07:14.626Z,101171.72
2022-10-29T09:10:04.575Z,101186.16
2022-10-29T09:12:56.606Z,101167.63
2022-10-29T09:15:44.581Z,101170.75
2022-10-29T09:18:35.956Z,101172.16
2022-10-29T09:21:26.862Z,101173.75
2022-10-29T09:24:32.040Z,101185.81
2022-10-29T09:27:00.622Z,101177.97
2022-10-29T09:29:48.770Z,101160.81
2022-10-29T09:32:29.490Z,101168.25
2022-10-29T09:35:01.733Z,101163.88
2022-10-29T09:37:41.003Z,101170.41
2022-10-29T09:40:21.059Z,101180.50
2022-10-29T09:42:48.127Z,101181.94
2022-10-29T09:45:18.142Z,101184.03
2022-10-29T09:48:02.616Z,101178.19
2022-10-29T09:50:40.651Z,101185.59
2022-10-29T09:53:08.538Z,101179.25
2022-10-29T09:55:43.818Z,101170.22
2022-10-29T09:58:20.938Z,101173.75
2022-10-29T10:00:47.487Z,101171.44
2022-10-29T10:03:23.396Z,101180.66
2022-10-29T10:06:10.286Z,101179.69
2022-10-29T10:09:04.882Z,101176.13
2022-10-29T10:11:54.267Z,101169.00
2022-10-29T10:14:22.823Z,101174.69
2022-10-29T10:16:58.340Z,101166.06
2022-10-29T10:19:27.958Z,101153.78
2022-10-29T10:22:03.100Z,101147.34
2022-10-29T10:24:32.304Z,101166.31
2022-10-29T10:26:59.013Z,101173.47
2022-10-29T10:29:26.436Z,101178.84
2022-10-29T10:31:55.709Z,101181.72
2022-10-29T10:34:36.310Z,101169.22
2022-10-29T10:37:05.228Z,101164.91
2022-10-29T10:39:55.858Z,101167.63
2022-10-29T10:42:28.769Z,101168.13
2022-10-29T10:45:01.179Z,101174.22
2022-10-29T10:47:33.908Z,101158.97
2022-10-29T10:50:28.877Z,101159.22
2022-10-29T10:52:58.602Z,101170.19
2022-10-29T10:55:34.840Z,101180.22
2022-10-29T10:58:26.467Z,101180.91
2022-10-29T11:01:02.589Z,101171.88
2022-10-29T11:03:34.872Z,101171.00
2022-10-29T11:06:13.410Z,101155.41
2022-10-29T11:08:53.317Z,101148.03
2022-10-29T11:11:39.151Z,101155.28
2022-10-29T11:14:21.887Z,101169.28
2022-10-29T11:16:55.769Z,101157.00
2022-10-29T11:19:57.655Z,101171.38
2022-10-29T11:22:52.541Z,101167.06
2022-10-29T11:25:29.796Z,101173.25
2022-10-29T11:28:11.548Z,101186.81
2022-10-29T11:30:50.707Z,101184.31
2022-10-29T11:33:24.270Z,101176.53
2022-10-29T11:36:14.156Z,101180.50
2022-10-29T11:38:47.791Z,101172.41
2022-10-29T11:41:39.290Z,101165.41
2022-10-29T11:44:12.821Z,101162.91
2022-10-29T11:47:04.320Z,101165.09
2022-10-29T11:49:45.258Z,101173.53
2022-10-29T11:52:23.040Z,101173.38
2022-10-29T11:55:19.113Z,101164.25
2022-10-29T11:57:55.560Z,101175.94
2022-10-29T12:00:27.467Z,101180.19
2022-10-29T12:03:19.881Z,101165.88
2022-10-29T12:05:53.778Z,101178.94
2022-10-29T12:08:29.449Z,101178.75
2022-10-29T12:10:58.857Z,101191.66
2022-10-29T12:13:47.169Z,101173.97
2022-10-29T12:16:24.275Z,101169.66
2022-10-29T12:18:55.411Z,101173.22
2022-10-29T12:21:34.471Z,101181.41
2022-10-29T12:24:03.753Z,101182.19
2022-10-29T12:26:36.138Z,101176.22
2022-10-29T12:29:22.026Z,101160.13
2022-10-29T12:32:14.910Z,101162.44
2022-10-29T12:34:46.023Z,101162.13
2022-10-29T12:37:12.542Z,101169.16
2022-10-29T12:39:44.527Z,101166.81
2022-10-29T12:42:22.926Z,101178.28
2022-10-29T12:45:17.419Z,101162.94
2022-10-29T12:48:13.232Z,101153.34
2022-10-29T12:50:51.696Z,101145.09
2022-10-29T12:53:33.459Z,101149.19
2022-10-29T12:56:00.345Z,101155.78
2022-10-29T12:58:45.491Z,101151.66
2022-10-29T13:02:05.817Z,101161.00
2022-10-29T13:04:30.316Z,101159.97
2022-10-29T13:07:00.628Z,101153.88
2022-10-29T13:09:29.455Z,101151.03
2022-10-29T13:11:56.092Z,101156.38
2022-10-29T13:14:51.850Z,101151.94
2022-10-29T13:17:27.715Z,101149.38
2022-10-29T13:19:58.977Z,101159.97
2022-10-29T13:25:44.024Z,101161.34
2022-10-29T13:28:10.624Z,101164.00
2022-10-29T13:30:41.656Z,101169.53
2022-10-29T13:33:26.251Z,101163.44
2022-10-29T13:35:57.597Z,101158.38
2022-10-29T13:38:36.226Z,101160.88
2022-10-29T13:41:28.011Z,101151.97
2022-10-29T13:44:05.241Z,101152.31
2022-10-29T13:46:57.929Z,101149.84
2022-10-29T13:49:36.960Z,101155.03
2022-10-29T13:52:09.383Z,101162.53
2022-10-29T13:54:47.454Z,101150.00
2022-10-29T13:57:50.699Z,101143.31
2022-10-29T14:00:19.970Z,101139.53
2022-10-29T14:03:15.028Z,101144.09
2022-10-29T14:05:47.121Z,101145.34
2022-10-29T14:08:54.190Z,101138.41
2022-10-29T14:11:26.926Z,101147.00
2022-10-29T14:13:58.817Z,101147.44
2022-10-29T14:16:30.479Z,101144.97
2022-10-29T14:18:57.052Z,101158.91
2022-10-29T14:21:29.722Z,101171.03
2022-10-29T14:23:58.652Z,101169.59
2022-10-29T14:26:27.124Z,101148.41
2022-10-29T14:28:53.872Z,101162.03
2022-10-29T14:31:26.133Z,101155.84
2022-10-29T14:34:00.447Z,101170.75
2022-10-29T14:36:40.020Z,101147.69
2022-10-29T14:39:12.004Z,101152.47
2022-10-29T14:41:39.438Z,101152.28
2022-10-29T14:44:15.323Z,101154.41
2022-10-29T14:46:44.267Z,101153.91
2022-10-29T14:49:23.601Z,101154.94
2022-10-29T14:51:52.971Z,101157.81
2022-10-29T14:54:28.351Z,101162.06
2022-10-29T14:56:59.056Z,101166.69
2022-10-29T14:59:29.288Z,101162.88
2022-10-29T15:02:05.768Z,101156.78
2022-10-29T15:04:50.496Z,101158.78
2022-10-29T15:07:29.576Z,101151.44
2022-10-29T15:10:08.155Z,101151.28
2022-10-29T15:12:37.349Z,101145.53
2022-10-29T15:15:18.901Z,101144.13
2022-10-29T15:18:00.032Z,101142.50
2022-10-29T15:20:32.190Z,101137.72
2022-10-29T15:22:59.377Z,101149.47
2022-10-29T15:25:35.738Z,101150.44
2022-10-29T15:28:03.251Z,101153.31
2022-10-29T15:30:37.795Z,101158.22
2022-10-29T15:33:18.008Z,101145.50
2022-10-29T15:35:53.368Z,101145.06
2022-10-29T15:38:35.078Z,101137.78
2022-10-29T15:41:19.571Z,101144.25
2022-10-29T15:43:55.013Z,101138.72
2022-10-29T15:46:36.008Z,101138.63
2022-10-29T15:49:02.735Z,101141.44
2022-10-29T15:51:31.018Z,101141.38
2022-10-29T15:54:01.971Z,101134.66
2022-10-29T15:56:30.909Z,101127.31
2022-10-29T15:58:59.545Z,101129.97
2022-10-29T16:01:26.185Z,101142.22
2022-10-29T16:03:54.812Z,101142.13
2022-10-29T16:06:21.478Z,101152.56
2022-10-29T16:08:51.018Z,101148.66
2022-10-29T16:11:21.191Z,101141.59
2022-10-29T16:13:54.605Z,101133.91
2022-10-29T16:16:23.946Z,101142.13
2022-10-29T16:18:51.443Z,101136.53
2022-10-29T16:21:25.877Z,101144.66
2022-10-29T16:23:52.664Z,101136.28
2022-10-29T16:26:23.822Z,101141.00
2022-10-29T16:28:52.747Z,101141.31
2022-10-29T16:31:23.026Z,101142.81
2022-10-29T16:33:51.550Z,101145.66
2022-10-29T16:36:18.369Z,101146.13
2022-10-29T16:38:44.912Z,101147.06
2022-10-29T16:41:16.023Z,101142.25
2022-10-29T16:43:43.569Z,101144.75
2022-10-29T16:46:11.020Z,101144.88
2022-10-29T16:48:37.810Z,101130.72
2022-10-29T16:51:04.975Z,101141.72
2022-10-29T16:53:31.531Z,101146.72
2022-10-29T16:55:58.156Z,101142.53
2022-10-29T16:58:24.850Z,101153.31
2022-10-29T17:00:51.713Z,101153.31
2022-10-29T17:03:18.481Z,101152.13
2022-10-29T17:05:46.480Z,101153.69
2022-10-29T17:08:13.631Z,101164.78
2022-10-29T17:10:40.210Z,101160.22
2022-10-29T17:13:11.745Z,101165.66
2022-10-29T17:15:41.520Z,101161.72
2022-10-29T17:18:08.168Z,101160.44
2022-10-29T17:20:34.759Z,101158.56
2022-10-29T17:23:01.341Z,101152.59
2022-10-29T17:25:27.939Z,101159.59
2022-10-29T17:27:54.911Z,101159.78
2022-10-29T17:30:21.660Z,101161.47
2022-10-29T17:32:48.202Z,101152.88
2022-10-29T17:35:14.863Z,101141.50
2022-10-29T17:37:41.377Z,101157.25
2022-10-29T17:40:08.606Z,101161.53
2022-10-29T17:42:35.371Z,101161.09
2022-10-29T17:45:01.937Z,101161.63
2022-10-29T17:47:29.449Z,101172.47
2022-10-29T17:49:56.191Z,101170.16
2022-10-29T17:52:22.676Z,101169.47
2022-10-29T17:54:49.281Z,101168.75
2022-10-29T17:57:15.799Z,101183.94
2022-10-29T17:59:42.339Z,101190.53
2022-10-29T18:02:11.151Z,101185.31
2022-10-29T18:04:38.119Z,101181.59
2022-10-29T18:07:04.787Z,101175.97
2022-10-29T18:09:31.366Z,101180.38
2022-10-29T18:11:57.893Z,101184.00
2022-10-29T18:14:24.684Z,101184.13
2022-10-29T18:16:51.261Z,101185.03
2022-10-29T18:19:17.841Z,101197.94
2022-10-29T18:21:44.459Z,101202.03
2022-10-29T18:24:11.100Z,101204.28
2022-10-29T18:26:37.719Z,101205.19
2022-10-29T18:29:10.966Z,101191.69
2022-10-29T18:31:38.001Z,101198.03
2022-10-29T18:34:07.488Z,101187.00
2022-10-29T18:36:35.655Z,101181.50
2022-10-29T18:39:04.103Z,101189.50
2022-10-29T18:41:30.884Z,101193.31
2022-10-29T18:43:58.615Z,101194.03
2022-10-29T18:46:25.553Z,101195.72
2022-10-29T18:48:52.427Z,101195.59
2022-10-29T18:51:25.052Z,101197.03
2022-10-29T18:53:53.362Z,101197.69
2022-10-29T18:56:21.858Z,101197.28
2022-10-29T18:58:49.001Z,101196.53
2022-10-29T19:01:22.703Z,101199.78
2022-10-29T19:03:51.535Z,101198.16
2022-10-29T19:06:19.343Z,101207.78
2022-10-29T19:08:46.456Z,101212.22
2022-10-29T19:11:15.582Z,101214.47
2022-10-29T19:13:42.386Z,101217.19
2022-10-29T19:16:11.424Z,101218.69
2022-10-29T19:18:39.259Z,101214.16
2022-10-29T19:21:11.639Z,101211.53
2022-10-29T19:23:38.581Z,101214.09
2022-10-29T19:26:07.321Z,101212.28
2022-10-29T19:28:34.692Z,101208.66
2022-10-29T19:31:06.404Z,101216.66
2022-10-29T19:33:33.155Z,101205.28
2022-10-29T19:36:00.220Z,101211.53
2022-10-29T19:38:27.439Z,101209.88
2022-10-29T19:40:56.887Z,101221.63
2022-10-29T19:43:24.398Z,101224.97
2022-10-29T19:45:51.840Z,101220.00
2022-10-29T19:48:19.019Z,101230.03
2022-10-29T19:50:46.783Z,101232.19
2022-10-29T19:53:13.553Z,101238.06
2022-10-29T19:55:40.685Z,101239.19
2022-10-29T19:58:07.711Z,101239.34
2022-10-29T20:00:34.245Z,101245.97
2022-10-29T20:03:00.951Z,101240.66
2022-10-29T20:05:27.750Z,101252.69
2022-10-29T20:07:55.930Z,101244.66
2022-10-29T20:10:23.958Z,101236.47
2022-10-29T20:12:50.608Z,101245.81
2022-10-29T20:15:17.293Z,101240.66
2022-10-29T20:17:44.001Z,101224.69
2022-10-29T20:20:15.723Z,101228.06
2022-10-29T20:22:43.699Z,101225.28
2022-10-29T20:25:10.347Z,101228.53
2022-10-29T20:27:36.914Z,101216.41
2022-10-29T20:30:05.261Z,101219.38
2022-10-29T20:32:31.902Z,101210.69
2022-10-29T20:34:58.484Z,101211.91
2022-10-29T20:37:25.164Z,101205.25
2022-10-29T20:39:51.711Z,101214.75
2022-10-29T20:42:18.429Z,101212.66
2022-10-29T20:44:45.931Z,101210.88
2022-10-29T20:47:12.573Z,101211.25
2022-10-29T20:49:39.132Z,101219.63
2022-10-29T20:52:07.182Z,101207.72
2022-10-29T20:54:33.928Z,101215.09
2022-10-29T20:57:00.487Z,101219.91
2022-10-29T20:59:27.020Z,101225.84
2022-10-29T21:01:53.769Z,101210.59
2022-10-29T21:04:20.435Z,101210.22
2022-10-29T21:06:47.068Z,101208.81
2022-10-29T21:09:13.575Z,101206.09
2022-10-29T21:11:41.383Z,101210.34
2022-10-29T21:14:07.861Z,101208.41
2022-10-29T21:16:34.458Z,101209.81
2022-10-29T21:19:01.983Z,101212.50
2022-10-29T21:21:29.445Z,101223.16
2022-10-29T21:23:59.193Z,101220.38
2022-10-29T21:26:27.264Z,101220.03
2022-10-29T21:28:54.401Z,101219.50
2022-10-29T21:31:22.470Z,101217.72
2022-10-29T21:33:50.925Z,101225.75
2022-10-29T21:36:17.788Z,101219.78
2022-10-29T21:38:44.428Z,101224.31
2022-10-29T21:41:11.075Z,101223.16
2022-10-29T21:43:38.674Z,101233.38
2022-10-29T21:46:05.780Z,101243.16
2022-10-29T21:48:32.414Z,101250.19
2022-10-29T21:51:04.591Z,101235.28
2022-10-29T21:53:31.741Z,101238.28
2022-10-29T21:56:02.254Z,101232.03
2022-10-29T21:58:29.259Z,101235.25
2022-10-29T22:01:03.974Z,101228.78
2022-10-29T22:03:34.963Z,101226.72
2022-10-29T22:06:12.490Z,101227.03
2022-10-29T22:08:39.643Z,101225.63
2022-10-29T22:11:06.880Z,101231.91
2022-10-29T22:13:34.631Z,101228.94
2022-10-29T22:16:04.015Z,101235.78
2022-10-29T22:18:31.624Z,101239.44
2022-10-29T22:21:15.463Z,101236.38
2022-10-29T22:23:50.043Z,101231.25
2022-10-29T22:26:19.311Z,101228.97
2022-10-29T22:28:49.931Z,101232.06
2022-10-29T22:31:18.592Z,101231.59
2022-10-29T22:33:45.660Z,101233.56
2022-10-29T22:36:14.988Z,101226.56
2022-10-29T22:38:41.893Z,101224.53
2022-10-29T22:41:11.244Z,101223.13
2022-10-29T22:43:38.233Z,101218.75
2022-10-29T22:46:06.077Z,101219.47
2022-10-29T22:48:33.067Z,101233.66
2022-10-29T22:51:01.912Z,101226.56
2022-10-29T22:53:28.616Z,101216.38
2022-10-29T22:55:55.262Z,101220.44
2022-10-29T22:58:21.922Z,101210.66
2022-10-29T23:00:48.559Z,101227.56
2022-10-29T23:03:15.129Z,101223.03
2022-10-29T23:05:41.709Z,101221.88
2022-10-29T23:08:08.227Z,101213.22
2022-10-29T23:10:35.817Z,101222.16
2022-10-29T23:13:02.452Z,101227.03
2022-10-29T23:15:28.996Z,101229.06
2022-10-29T23:17:55.787Z,101218.34
2022-10-29T23:20:22.603Z,101213.72
2022-10-29T23:22:49.082Z,101212.84
2022-10-29T23:25:15.680Z,101218.38
2022-10-29T23:27:42.219Z,101224.34
2022-10-29T23:30:09.523Z,101231.31
2022-10-29T23:32:36.102Z,101239.72
2022-10-29T23:35:02.701Z,101237.38
2022-10-29T23:37:29.322Z,101240.72
2022-10-29T23:39:55.828Z,101242.03
2022-10-29T23:42:22.430Z,101239.97
2022-10-29T23:44:48.942Z,101243.66
2022-10-29T23:47:15.500Z,101239.06
2022-10-29T23:49:42.051Z,101239.06
2022-10-29T23:52:08.634Z,101228.41
2022-10-29T23:54:35.173Z,101224.41
2022-10-29T23:57:01.819Z,101219.19
2022-10-29T23:59:28.358Z,101217.97
